Terminal Aerodrome Forecast
Issued by NWS Wilmington, OH

Current Version | Previous Version | Text Only | Print | Product List | Glossary Off
Versions: 1 2 3 4 5 6 7 8 9 10 11 12 13 14 15 16 17 18 19 20 21 22 23 24 25 26 27

611
FTUS41 KILN 280904 AAC
TAFILN
TAF AMD
KILN 280904Z 2809/2906 05005KT 1/2SM FG VV002
      TEMPO 2809/2812 4SM BR SCT006 BKN100
     FM281200 04009KT P6SM SCT015 BKN040
      TEMPO 2812/2813 4SM BR BKN015
     FM281900 01013G20KT P6SM BKN040
     FM290100 02011KT P6SM SCT010=

USA.gov is the U.S. government's official web portal to all federal, state and local government web resources and services.